createdAt,value
2019-05-23T00:00:58.569Z,9.21
2019-05-23T00:06:24.511Z,9.11
2019-05-23T00:12:04.524Z,9.19
2019-05-23T00:17:25.898Z,9.14
2019-05-23T00:22:32.569Z,9.07
2019-05-23T00:27:40.088Z,9.08
2019-05-23T00:32:47.736Z,9.01
2019-05-23T00:37:52.979Z,8.99
2019-05-23T00:42:59.547Z,8.84
2019-05-23T00:48:06.194Z,8.70
2019-05-23T00:53:11.927Z,8.75
2019-05-23T00:58:19.282Z,8.71
2019-05-23T01:03:28.323Z,8.64
2019-05-23T01:08:35.360Z,8.58
2019-05-23T01:13:40.664Z,8.56
2019-05-23T01:18:46.352Z,8.58
2019-05-23T01:23:58.058Z,8.53
2019-05-23T01:29:04.174Z,8.54
2019-05-23T01:34:12.528Z,8.47
2019-05-23T01:39:19.189Z,8.41
2019-05-23T01:44:26.711Z,8.51
2019-05-23T01:49:31.931Z,8.49
2019-05-23T01:54:38.362Z,8.40
2019-05-23T01:59:45.321Z,8.45
2019-05-23T02:04:51.421Z,8.39
2019-05-23T02:09:56.862Z,8.24
2019-05-23T02:15:06.270Z,8.20
2019-05-23T02:20:14.107Z,8.14
2019-05-23T02:25:21.551Z,8.20
2019-05-23T02:30:34.588Z,8.13
2019-05-23T02:35:36.964Z,8.00
2019-05-23T02:41:05.384Z,7.95
2019-05-23T02:46:19.762Z,7.91
2019-05-23T02:51:29.314Z,7.87
2019-05-23T02:56:38.730Z,7.86
2019-05-23T03:02:15.835Z,7.82
2019-05-23T03:07:25.750Z,7.92
2019-05-23T03:12:32.945Z,7.86
2019-05-23T03:17:43.010Z,7.77
2019-05-23T03:22:51.066Z,7.68
2019-05-23T03:27:57.557Z,7.58
2019-05-23T03:33:05.904Z,7.62
2019-05-23T03:38:13.053Z,7.75
2019-05-23T03:43:19.080Z,7.63
2019-05-23T03:48:28.441Z,7.61
2019-05-23T03:53:35.871Z,7.63
2019-05-23T03:58:41.772Z,7.52
2019-05-23T04:03:48.831Z,7.53
2019-05-23T04:08:54.804Z,7.46
2019-05-23T04:14:00.087Z,7.43
2019-05-23T04:19:06.433Z,7.62
2019-05-23T04:24:11.974Z,7.69
2019-05-23T04:29:17.431Z,7.80
2019-05-23T04:34:22.748Z,7.96
2019-05-23T04:39:30.629Z,7.87
2019-05-23T04:44:36.615Z,7.96
2019-05-23T04:49:42.408Z,7.94
2019-05-23T04:54:49.040Z,7.95
2019-05-23T04:59:55.033Z,8.05
2019-05-23T05:05:01.057Z,8.04
2019-05-23T05:10:07.010Z,8.16
2019-05-23T05:15:12.508Z,8.30
2019-05-23T05:20:18.083Z,8.45
2019-05-23T05:25:23.347Z,8.65
2019-05-23T05:30:29.796Z,8.83
2019-05-23T05:35:35.710Z,9.08
2019-05-23T05:40:42.301Z,9.40
2019-05-23T05:45:47.639Z,9.76
2019-05-23T05:50:53.290Z,10.16
2019-05-23T05:55:58.709Z,10.55
2019-05-23T06:01:06.749Z,10.92
2019-05-23T06:06:19.565Z,11.23
2019-05-23T06:11:25.357Z,11.59
2019-05-23T06:16:30.775Z,12.04
2019-05-23T06:21:36.713Z,12.31
2019-05-23T06:26:44.826Z,12.58
2019-05-23T06:31:50.368Z,13.01
2019-05-23T06:36:55.595Z,13.24
2019-05-23T06:42:01.098Z,13.57
2019-05-23T06:47:07.788Z,13.82
2019-05-23T06:52:14.656Z,14.24
2019-05-23T06:57:20.884Z,14.57
2019-05-23T07:02:31.612Z,15.04
2019-05-23T07:07:35.970Z,15.18
2019-05-23T07:12:41.409Z,15.43
2019-05-23T07:17:46.763Z,15.71
2019-05-23T07:22:52.385Z,16.21
2019-05-23T07:27:58.403Z,16.21
2019-05-23T07:33:03.791Z,16.52
2019-05-23T07:38:09.014Z,16.80
2019-05-23T07:43:14.707Z,17.06
2019-05-23T07:48:20.231Z,17.56
2019-05-23T07:53:46.824Z,17.52
2019-05-23T07:58:53.627Z,17.84
2019-05-23T08:04:17.958Z,17.97
2019-05-23T08:09:09.628Z,18.44
2019-05-23T08:14:14.851Z,18.92
2019-05-23T08:19:20.497Z,19.27
2019-05-23T08:24:25.845Z,19.52
2019-05-23T08:29:31.589Z,19.61
2019-05-23T08:34:42.401Z,20.12
2019-05-23T08:39:45.875Z,20.08
2019-05-23T08:44:51.915Z,19.87
2019-05-23T08:49:57.256Z,20.44
2019-05-23T08:55:07.313Z,20.11
2019-05-23T09:00:13.428Z,20.23
2019-05-23T09:05:21.713Z,20.21
2019-05-23T09:10:27.405Z,20.95
2019-05-23T09:15:32.745Z,20.97
2019-05-23T09:20:38.714Z,20.62
2019-05-23T09:25:44.941Z,20.04
2019-05-23T09:30:50.431Z,19.70
2019-05-23T09:35:55.739Z,20.28
2019-05-23T09:41:01.221Z,19.77
2019-05-23T09:46:06.568Z,20.15
2019-05-23T09:51:12.156Z,19.96
2019-05-23T09:56:17.508Z,19.87
2019-05-23T10:01:25.062Z,19.89
2019-05-23T10:06:30.577Z,20.62
2019-05-23T10:11:36.126Z,21.44
2019-05-23T10:16:41.805Z,21.74
2019-05-23T10:21:47.216Z,21.92
2019-05-23T10:26:52.853Z,21.94
2019-05-23T10:31:58.090Z,21.97
2019-05-23T10:37:05.745Z,22.26
2019-05-23T10:42:11.104Z,22.47
2019-05-23T10:47:16.385Z,22.80
2019-05-23T10:52:21.809Z,22.97
2019-05-23T10:57:27.337Z,22.90
2019-05-23T11:02:32.825Z,23.21
2019-05-23T11:07:39.753Z,23.66
2019-05-23T11:12:45.007Z,23.09
2019-05-23T11:17:53.464Z,23.10
2019-05-23T11:22:58.029Z,23.13
2019-05-23T11:28:03.296Z,23.16
2019-05-23T11:33:09.780Z,23.63
2019-05-23T11:38:16.774Z,24.43
2019-05-23T11:43:22.030Z,23.87
2019-05-23T11:48:29.101Z,23.30
2019-05-23T11:53:34.927Z,23.28
2019-05-23T11:58:40.186Z,23.89
2019-05-23T12:03:47.433Z,24.51
2019-05-23T12:08:53.697Z,25.47
2019-05-23T12:14:02.664Z,25.99
2019-05-23T12:19:08.258Z,27.11
2019-05-23T12:24:14.985Z,27.02
2019-05-23T12:29:21.922Z,25.05
2019-05-23T12:34:27.425Z,24.40
2019-05-23T12:39:33.648Z,24.35
2019-05-23T12:44:38.892Z,24.46
2019-05-23T12:49:52.143Z,24.09
2019-05-23T12:54:57.365Z,24.98
2019-05-23T13:00:04.386Z,25.23
2019-05-23T13:05:11.826Z,25.16
2019-05-23T13:10:17.245Z,25.23
2019-05-23T13:15:23.294Z,26.12
2019-05-23T13:20:28.784Z,28.27
2019-05-23T13:25:34.198Z,28.06
2019-05-23T13:30:39.516Z,27.19
2019-05-23T13:35:45.742Z,26.65
2019-05-23T13:40:51.188Z,27.44
2019-05-23T13:45:56.733Z,26.97
2019-05-23T13:51:02.145Z,29.59
2019-05-23T13:56:07.624Z,27.38
2019-05-23T14:01:12.875Z,26.25
2019-05-23T14:06:18.210Z,25.88
2019-05-23T14:11:23.438Z,27.63
2019-05-23T14:16:30.374Z,29.57
2019-05-23T14:21:37.005Z,29.75
2019-05-23T14:26:49.766Z,28.82
2019-05-23T14:32:03.636Z,27.50
2019-05-23T14:37:17.333Z,26.81
2019-05-23T14:42:42.331Z,26.33
2019-05-23T14:53:13.105Z,28.03
2019-05-23T14:58:18.571Z,26.29
2019-05-23T15:03:25.780Z,26.21
2019-05-23T15:08:49.549Z,25.96
2019-05-23T15:13:38.556Z,26.73
2019-05-23T15:18:44.271Z,28.34
2019-05-23T15:23:50.192Z,27.21
2019-05-23T15:28:56.134Z,26.28
2019-05-23T15:34:01.748Z,26.02
2019-05-23T15:39:29.516Z,25.47
2019-05-23T15:44:35.588Z,26.22
2019-05-23T15:49:42.765Z,31.21
2019-05-23T15:54:55.965Z,26.83
2019-05-23T16:00:20.246Z,26.07
2019-05-23T16:05:26.845Z,25.80
2019-05-23T16:10:32.742Z,25.16
2019-05-23T16:15:38.008Z,24.78
2019-05-23T16:20:43.316Z,24.33
2019-05-23T16:25:48.554Z,24.05
2019-05-23T16:30:54.188Z,23.60
2019-05-23T16:36:00.410Z,23.61
2019-05-23T16:41:05.781Z,23.25
2019-05-23T16:46:11.555Z,22.99
2019-05-23T16:51:17.104Z,22.82
2019-05-23T16:56:27.959Z,22.86
2019-05-23T17:01:56.978Z,22.98
2019-05-23T17:07:02.072Z,22.61
2019-05-23T17:12:29.093Z,22.47
2019-05-23T17:18:02.938Z,22.30
2019-05-23T17:23:29.079Z,22.18
2019-05-23T17:28:37.589Z,22.07
2019-05-23T17:33:44.776Z,22.02
2019-05-23T17:38:50.633Z,21.80
2019-05-23T17:44:03.356Z,21.75
2019-05-23T17:49:10.432Z,21.58
2019-05-23T17:54:17.393Z,21.60
2019-05-23T17:59:22.753Z,21.45
2019-05-23T18:04:28.806Z,21.21
2019-05-23T18:09:35.889Z,21.02
2019-05-23T18:14:43.054Z,20.88
2019-05-23T18:19:48.405Z,20.73
2019-05-23T18:24:59.325Z,20.58
2019-05-23T18:30:01.870Z,20.35
2019-05-23T18:35:09.823Z,20.22
2019-05-23T18:40:16.586Z,19.97
2019-05-23T18:45:23.118Z,19.78
2019-05-23T18:50:28.848Z,19.59
2019-05-23T18:55:34.399Z,19.39
2019-05-23T19:01:14.006Z,19.19
2019-05-23T19:06:19.871Z,19.01
2019-05-23T19:11:25.700Z,18.70
2019-05-23T19:16:32.910Z,18.52
2019-05-23T19:21:40.048Z,18.26
2019-05-23T19:26:47.184Z,18.02
2019-05-23T19:31:54.554Z,17.76
2019-05-23T19:37:03.604Z,17.61
2019-05-23T19:42:09.724Z,17.38
2019-05-23T19:47:15.120Z,17.26
2019-05-23T19:52:21.130Z,17.00
2019-05-23T19:57:30.785Z,16.85
2019-05-23T20:02:41.870Z,16.64
2019-05-23T20:07:49.392Z,16.53
2019-05-23T20:12:54.686Z,16.38
2019-05-23T20:18:01.374Z,16.26
2019-05-23T20:23:07.446Z,16.10
2019-05-23T20:28:12.724Z,15.89
2019-05-23T20:33:19.230Z,15.83
2019-05-23T20:38:27.258Z,15.47
2019-05-23T20:43:33.163Z,15.49
2019-05-23T20:48:38.788Z,15.34
2019-05-23T20:53:44.759Z,15.27
2019-05-23T20:58:50.026Z,15.14
2019-05-23T21:03:56.438Z,14.97
2019-05-23T21:13:52.212Z,14.65
2019-05-23T21:18:57.484Z,14.48
2019-05-23T21:24:02.833Z,14.39
2019-05-23T21:29:08.084Z,14.48
2019-05-23T21:34:13.637Z,14.47
2019-05-23T21:39:19.094Z,14.40
2019-05-23T21:44:24.781Z,14.28
2019-05-23T21:49:30.124Z,14.15
2019-05-23T21:54:35.565Z,14.22
2019-05-23T21:59:40.850Z,14.08
2019-05-23T22:04:58.335Z,13.96
2019-05-23T22:10:04.566Z,13.82
2019-05-23T22:15:12.708Z,13.65
2019-05-23T22:20:18.269Z,13.59
2019-05-23T22:25:33.662Z,13.55
2019-05-23T22:30:39.728Z,13.43
2019-05-23T22:35:45.393Z,13.43
2019-05-23T22:40:50.820Z,13.45
2019-05-23T22:45:57.169Z,13.35
2019-05-23T22:51:02.867Z,13.26
2019-05-23T22:56:09.262Z,13.25
2019-05-23T23:01:16.673Z,13.16
2019-05-23T23:06:23.227Z,13.09
2019-05-23T23:11:28.907Z,13.01
2019-05-23T23:16:34.360Z,13.03
2019-05-23T23:21:39.597Z,12.90
2019-05-23T23:26:44.998Z,12.83
2019-05-23T23:31:50.607Z,12.67
2019-05-23T23:36:55.877Z,12.60
2019-05-23T23:42:01.156Z,12.63
2019-05-23T23:47:24.894Z,12.55
2019-05-23T23:52:48.000Z,12.47
2019-05-23T23:58:02.214Z,12.58
